sensor_id;sensor_type;location;lat;lon;timestamp;P1;durP1;ratioP1;P2;durP2;ratioP2
70320;SDS011;61127;55.826;37.046;2023-02-01T00:01:17;10.00;;;4.18;;
70320;SDS011;61127;55.826;37.046;2023-02-01T00:03:43;11.27;;;4.32;;
70320;SDS011;61127;55.826;37.046;2023-02-01T00:06:10;12.67;;;4.73;;
70320;SDS011;61127;55.826;37.046;2023-02-01T00:08:35;14.48;;;5.00;;
70320;SDS011;61127;55.826;37.046;2023-02-01T00:11:05;12.25;;;5.07;;
70320;SDS011;61127;55.826;37.046;2023-02-01T00:13:31;13.83;;;5.37;;
70320;SDS011;61127;55.826;37.046;2023-02-01T00:16:05;15.38;;;5.45;;
70320;SDS011;61127;55.826;37.046;2023-02-01T00:18:31;12.68;;;4.68;;
70320;SDS011;61127;55.826;37.046;2023-02-01T00:20:57;12.13;;;4.90;;
70320;SDS011;61127;55.826;37.046;2023-02-01T00:23:22;12.25;;;5.30;;
70320;SDS011;61127;55.826;37.046;2023-02-01T00:25:49;14.73;;;5.97;;
70320;SDS011;61127;55.826;37.046;2023-02-01T00:28:14;15.93;;;6.20;;
70320;SDS011;61127;55.826;37.046;2023-02-01T00:30:40;15.03;;;5.90;;
70320;SDS011;61127;55.826;37.046;2023-02-01T00:33:05;14.50;;;5.97;;
70320;SDS011;61127;55.826;37.046;2023-02-01T00:35:34;14.55;;;5.90;;
70320;SDS011;61127;55.826;37.046;2023-02-01T00:37:59;16.13;;;6.10;;
70320;SDS011;61127;55.826;37.046;2023-02-01T00:40:25;15.05;;;6.40;;
70320;SDS011;61127;55.826;37.046;2023-02-01T00:42:51;17.02;;;6.78;;
70320;SDS011;61127;55.826;37.046;2023-02-01T00:45:17;16.10;;;5.90;;
70320;SDS011;61127;55.826;37.046;2023-02-01T00:47:43;17.40;;;6.65;;
70320;SDS011;61127;55.826;37.046;2023-02-01T00:50:09;15.43;;;6.43;;
70320;SDS011;61127;55.826;37.046;2023-02-01T00:52:34;15.10;;;6.78;;
70320;SDS011;61127;55.826;37.046;2023-02-01T00:55:00;20.20;;;7.87;;
70320;SDS011;61127;55.826;37.046;2023-02-01T00:57:25;17.20;;;7.05;;
70320;SDS011;61127;55.826;37.046;2023-02-01T00:59:51;14.67;;;6.07;;
70320;SDS011;61127;55.826;37.046;2023-02-01T01:02:17;14.43;;;6.57;;
70320;SDS011;61127;55.826;37.046;2023-02-01T01:04:43;16.80;;;6.43;;
70320;SDS011;61127;55.826;37.046;2023-02-01T01:07:09;16.50;;;6.90;;
70320;SDS011;61127;55.826;37.046;2023-02-01T01:09:35;15.00;;;6.50;;
70320;SDS011;61127;55.826;37.046;2023-02-01T01:12:00;15.43;;;6.05;;
70320;SDS011;61127;55.826;37.046;2023-02-01T01:14:31;16.45;;;6.28;;
70320;SDS011;61127;55.826;37.046;2023-02-01T01:16:57;15.73;;;6.25;;
70320;SDS011;61127;55.826;37.046;2023-02-01T01:19:23;16.30;;;6.93;;
70320;SDS011;61127;55.826;37.046;2023-02-01T01:21:48;17.35;;;6.72;;
70320;SDS011;61127;55.826;37.046;2023-02-01T01:24:14;15.37;;;6.00;;
70320;SDS011;61127;55.826;37.046;2023-02-01T01:26:40;13.55;;;5.93;;
70320;SDS011;61127;55.826;37.046;2023-02-01T01:29:05;20.20;;;6.50;;
70320;SDS011;61127;55.826;37.046;2023-02-01T01:31:31;16.25;;;6.20;;
70320;SDS011;61127;55.826;37.046;2023-02-01T01:33:58;16.20;;;6.53;;
70320;SDS011;61127;55.826;37.046;2023-02-01T01:36:24;13.73;;;6.18;;
70320;SDS011;61127;55.826;37.046;2023-02-01T01:38:50;15.55;;;6.15;;
70320;SDS011;61127;55.826;37.046;2023-02-01T01:41:24;14.75;;;6.15;;
70320;SDS011;61127;55.826;37.046;2023-02-01T01:46:24;16.98;;;5.90;;
70320;SDS011;61127;55.826;37.046;2023-02-01T01:48:53;15.80;;;6.15;;
70320;SDS011;61127;55.826;37.046;2023-02-01T01:51:19;14.18;;;5.72;;
70320;SDS011;61127;55.826;37.046;2023-02-01T01:53:54;16.67;;;5.90;;
70320;SDS011;61127;55.826;37.046;2023-02-01T01:56:22;17.67;;;6.03;;
70320;SDS011;61127;55.826;37.046;2023-02-01T01:58:47;12.98;;;6.20;;
70320;SDS011;61127;55.826;37.046;2023-02-01T02:01:13;16.58;;;6.05;;
70320;SDS011;61127;55.826;37.046;2023-02-01T02:03:40;15.10;;;5.90;;
70320;SDS011;61127;55.826;37.046;2023-02-01T02:08:52;17.43;;;6.80;;
70320;SDS011;61127;55.826;37.046;2023-02-01T02:11:18;17.02;;;6.45;;
70320;SDS011;61127;55.826;37.046;2023-02-01T02:13:45;14.73;;;6.10;;
70320;SDS011;61127;55.826;37.046;2023-02-01T02:18:41;15.10;;;6.18;;
70320;SDS011;61127;55.826;37.046;2023-02-01T02:21:14;12.60;;;5.90;;
70320;SDS011;61127;55.826;37.046;2023-02-01T02:26:25;12.15;;;5.15;;
70320;SDS011;61127;55.826;37.046;2023-02-01T02:39:21;14.13;;;5.97;;
70320;SDS011;61127;55.826;37.046;2023-02-01T02:42:08;13.60;;;5.40;;
70320;SDS011;61127;55.826;37.046;2023-02-01T02:44:57;14.63;;;5.90;;
70320;SDS011;61127;55.826;37.046;2023-02-01T02:47:54;12.88;;;5.43;;
70320;SDS011;61127;55.826;37.046;2023-02-01T02:53:15;13.57;;;6.03;;
70320;SDS011;61127;55.826;37.046;2023-02-01T02:56:09;14.70;;;5.85;;
70320;SDS011;61127;55.826;37.046;2023-02-01T02:58:55;14.90;;;5.28;;
70320;SDS011;61127;55.826;37.046;2023-02-01T03:01:39;13.75;;;5.32;;
70320;SDS011;61127;55.826;37.046;2023-02-01T03:04:24;15.43;;;6.40;;
70320;SDS011;61127;55.826;37.046;2023-02-01T03:06:51;12.10;;;5.27;;
70320;SDS011;61127;55.826;37.046;2023-02-01T03:09:36;15.68;;;5.57;;
70320;SDS011;61127;55.826;37.046;2023-02-01T03:12:04;16.60;;;5.85;;
70320;SDS011;61127;55.826;37.046;2023-02-01T03:14:52;14.55;;;5.60;;
70320;SDS011;61127;55.826;37.046;2023-02-01T03:17:22;13.02;;;5.80;;
70320;SDS011;61127;55.826;37.046;2023-02-01T03:19:49;14.40;;;5.73;;
70320;SDS011;61127;55.826;37.046;2023-02-01T03:22:23;14.07;;;5.60;;
70320;SDS011;61127;55.826;37.046;2023-02-01T03:25:01;13.80;;;5.25;;
70320;SDS011;61127;55.826;37.046;2023-02-01T03:27:40;12.88;;;5.35;;
70320;SDS011;61127;55.826;37.046;2023-02-01T03:32:43;16.27;;;6.23;;
70320;SDS011;61127;55.826;37.046;2023-02-01T03:35:39;14.77;;;5.85;;
70320;SDS011;61127;55.826;37.046;2023-02-01T03:38:12;14.32;;;5.82;;
70320;SDS011;61127;55.826;37.046;2023-02-01T03:40:42;13.57;;;5.32;;
70320;SDS011;61127;55.826;37.046;2023-02-01T03:43:11;14.23;;;5.50;;
70320;SDS011;61127;55.826;37.046;2023-02-01T03:48:08;14.70;;;5.72;;
70320;SDS011;61127;55.826;37.046;2023-02-01T03:50:35;12.20;;;5.22;;
70320;SDS011;61127;55.826;37.046;2023-02-01T03:53:03;14.02;;;5.60;;
70320;SDS011;61127;55.826;37.046;2023-02-01T03:55:30;13.27;;;5.25;;
70320;SDS011;61127;55.826;37.046;2023-02-01T03:57:59;14.63;;;5.90;;
70320;SDS011;61127;55.826;37.046;2023-02-01T04:00:27;16.25;;;5.78;;
70320;SDS011;61127;55.826;37.046;2023-02-01T04:02:55;13.38;;;5.50;;
70320;SDS011;61127;55.826;37.046;2023-02-01T04:05:22;15.73;;;5.87;;
70320;SDS011;61127;55.826;37.046;2023-02-01T04:08:01;14.07;;;5.65;;
70320;SDS011;61127;55.826;37.046;2023-02-01T04:10:26;12.57;;;5.40;;
70320;SDS011;61127;55.826;37.046;2023-02-01T04:12:52;14.18;;;5.90;;
70320;SDS011;61127;55.826;37.046;2023-02-01T04:15:18;14.50;;;6.07;;
70320;SDS011;61127;55.826;37.046;2023-02-01T04:17:44;12.68;;;5.45;;
70320;SDS011;61127;55.826;37.046;2023-02-01T04:20:10;15.97;;;5.60;;
70320;SDS011;61127;55.826;37.046;2023-02-01T04:22:36;14.38;;;5.38;;
70320;SDS011;61127;55.826;37.046;2023-02-01T04:27:31;16.88;;;5.65;;
70320;SDS011;61127;55.826;37.046;2023-02-01T04:29:57;13.77;;;5.63;;
70320;SDS011;61127;55.826;37.046;2023-02-01T04:32:22;12.60;;;5.63;;
70320;SDS011;61127;55.826;37.046;2023-02-01T04:34:49;14.57;;;5.83;;
70320;SDS011;61127;55.826;37.046;2023-02-01T04:37:15;12.98;;;5.10;;
70320;SDS011;61127;55.826;37.046;2023-02-01T04:39:40;18.93;;;5.97;;
70320;SDS011;61127;55.826;37.046;2023-02-01T04:42:06;12.80;;;5.20;;
70320;SDS011;61127;55.826;37.046;2023-02-01T04:44:32;14.70;;;6.13;;
70320;SDS011;61127;55.826;37.046;2023-02-01T04:46:58;13.30;;;5.88;;
70320;SDS011;61127;55.826;37.046;2023-02-01T04:49:23;14.40;;;5.90;;
70320;SDS011;61127;55.826;37.046;2023-02-01T04:51:50;14.80;;;5.63;;
70320;SDS011;61127;55.826;37.046;2023-02-01T04:54:17;13.10;;;5.30;;
70320;SDS011;61127;55.826;37.046;2023-02-01T04:56:42;14.27;;;6.07;;
70320;SDS011;61127;55.826;37.046;2023-02-01T04:59:09;12.43;;;5.65;;
70320;SDS011;61127;55.826;37.046;2023-02-01T05:01:35;16.13;;;5.93;;
70320;SDS011;61127;55.826;37.046;2023-02-01T05:04:01;14.13;;;5.72;;
70320;SDS011;61127;55.826;37.046;2023-02-01T05:06:27;16.27;;;6.37;;
70320;SDS011;61127;55.826;37.046;2023-02-01T05:08:53;14.15;;;5.72;;
70320;SDS011;61127;55.826;37.046;2023-02-01T05:11:18;14.07;;;6.13;;
70320;SDS011;61127;55.826;37.046;2023-02-01T05:14:02;19.52;;;6.97;;
70320;SDS011;61127;55.826;37.046;2023-02-01T05:16:28;15.70;;;6.47;;
70320;SDS011;61127;55.826;37.046;2023-02-01T05:18:54;17.75;;;6.45;;
70320;SDS011;61127;55.826;37.046;2023-02-01T05:21:21;20.90;;;7.30;;
70320;SDS011;61127;55.826;37.046;2023-02-01T05:23:47;18.88;;;7.13;;
70320;SDS011;61127;55.826;37.046;2023-02-01T05:26:31;19.58;;;7.20;;
70320;SDS011;61127;55.826;37.046;2023-02-01T05:28:56;15.97;;;6.60;;
70320;SDS011;61127;55.826;37.046;2023-02-01T05:31:23;18.13;;;6.75;;
70320;SDS011;61127;55.826;37.046;2023-02-01T05:33:48;17.48;;;7.50;;
70320;SDS011;61127;55.826;37.046;2023-02-01T05:36:15;20.17;;;7.50;;
70320;SDS011;61127;55.826;37.046;2023-02-01T05:38:40;17.87;;;7.30;;
70320;SDS011;61127;55.826;37.046;2023-02-01T05:41:06;20.33;;;7.20;;
70320;SDS011;61127;55.826;37.046;2023-02-01T05:43:31;24.77;;;8.07;;
70320;SDS011;61127;55.826;37.046;2023-02-01T05:45:57;20.53;;;8.10;;
70320;SDS011;61127;55.826;37.046;2023-02-01T05:48:23;21.50;;;8.02;;
70320;SDS011;61127;55.826;37.046;2023-02-01T05:50:49;21.67;;;8.27;;
70320;SDS011;61127;55.826;37.046;2023-02-01T05:53:14;24.02;;;8.48;;
70320;SDS011;61127;55.826;37.046;2023-02-01T05:55:41;21.00;;;8.60;;
70320;SDS011;61127;55.826;37.046;2023-02-01T05:58:07;18.70;;;7.82;;
70320;SDS011;61127;55.826;37.046;2023-02-01T06:00:33;19.42;;;7.68;;
70320;SDS011;61127;55.826;37.046;2023-02-01T06:02:59;18.90;;;7.60;;
70320;SDS011;61127;55.826;37.046;2023-02-01T06:05:24;22.30;;;8.82;;
70320;SDS011;61127;55.826;37.046;2023-02-01T06:07:51;22.87;;;8.83;;
70320;SDS011;61127;55.826;37.046;2023-02-01T06:10:18;23.30;;;8.52;;
70320;SDS011;61127;55.826;37.046;2023-02-01T06:12:44;22.45;;;9.07;;
70320;SDS011;61127;55.826;37.046;2023-02-01T06:15:11;22.33;;;8.03;;
70320;SDS011;61127;55.826;37.046;2023-02-01T06:17:38;25.30;;;8.90;;
70320;SDS011;61127;55.826;37.046;2023-02-01T06:20:07;20.75;;;8.63;;
70320;SDS011;61127;55.826;37.046;2023-02-01T06:22:43;24.02;;;9.18;;
70320;SDS011;61127;55.826;37.046;2023-02-01T06:25:09;20.60;;;8.63;;
70320;SDS011;61127;55.826;37.046;2023-02-01T06:27:35;19.63;;;8.35;;
70320;SDS011;61127;55.826;37.046;2023-02-01T06:30:01;23.55;;;9.40;;
70320;SDS011;61127;55.826;37.046;2023-02-01T06:32:29;23.02;;;8.85;;
70320;SDS011;61127;55.826;37.046;2023-02-01T06:34:58;24.45;;;8.30;;
70320;SDS011;61127;55.826;37.046;2023-02-01T06:37:26;25.90;;;8.82;;
70320;SDS011;61127;55.826;37.046;2023-02-01T06:39:57;21.60;;;8.57;;
70320;SDS011;61127;55.826;37.046;2023-02-01T06:42:25;23.13;;;8.70;;
70320;SDS011;61127;55.826;37.046;2023-02-01T06:44:55;21.38;;;8.95;;
70320;SDS011;61127;55.826;37.046;2023-02-01T06:47:22;22.73;;;8.70;;
70320;SDS011;61127;55.826;37.046;2023-02-01T06:49:48;21.63;;;8.03;;
70320;SDS011;61127;55.826;37.046;2023-02-01T06:52:16;23.63;;;9.55;;
70320;SDS011;61127;55.826;37.046;2023-02-01T06:54:44;24.55;;;8.60;;
70320;SDS011;61127;55.826;37.046;2023-02-01T06:57:10;21.43;;;9.37;;
70320;SDS011;61127;55.826;37.046;2023-02-01T06:59:35;33.42;;;10.07;;
70320;SDS011;61127;55.826;37.046;2023-02-01T07:02:01;27.80;;;9.60;;
70320;SDS011;61127;55.826;37.046;2023-02-01T07:04:28;23.75;;;10.00;;
70320;SDS011;61127;55.826;37.046;2023-02-01T07:06:54;24.17;;;9.93;;
70320;SDS011;61127;55.826;37.046;2023-02-01T07:09:20;24.55;;;9.57;;
70320;SDS011;61127;55.826;37.046;2023-02-01T07:11:46;25.67;;;9.95;;
70320;SDS011;61127;55.826;37.046;2023-02-01T07:14:12;22.00;;;8.47;;
70320;SDS011;61127;55.826;37.046;2023-02-01T07:16:37;27.98;;;9.48;;
70320;SDS011;61127;55.826;37.046;2023-02-01T07:19:03;24.13;;;9.32;;
70320;SDS011;61127;55.826;37.046;2023-02-01T07:21:29;24.03;;;9.30;;
70320;SDS011;61127;55.826;37.046;2023-02-01T07:23:54;23.90;;;8.98;;
70320;SDS011;61127;55.826;37.046;2023-02-01T07:26:20;24.63;;;10.17;;
70320;SDS011;61127;55.826;37.046;2023-02-01T07:28:46;26.70;;;9.43;;
70320;SDS011;61127;55.826;37.046;2023-02-01T07:31:13;24.07;;;9.17;;
70320;SDS011;61127;55.826;37.046;2023-02-01T07:33:40;26.83;;;9.77;;
70320;SDS011;61127;55.826;37.046;2023-02-01T07:36:08;25.63;;;9.77;;
70320;SDS011;61127;55.826;37.046;2023-02-01T07:38:35;25.73;;;9.00;;
70320;SDS011;61127;55.826;37.046;2023-02-01T07:41:02;26.57;;;9.10;;
70320;SDS011;61127;55.826;37.046;2023-02-01T07:43:28;32.78;;;10.00;;
70320;SDS011;61127;55.826;37.046;2023-02-01T07:45:55;27.50;;;10.13;;
70320;SDS011;61127;55.826;37.046;2023-02-01T07:48:21;23.88;;;9.15;;
70320;SDS011;61127;55.826;37.046;2023-02-01T07:50:47;29.85;;;11.10;;
70320;SDS011;61127;55.826;37.046;2023-02-01T07:53:13;27.40;;;10.88;;
70320;SDS011;61127;55.826;37.046;2023-02-01T07:55:40;24.80;;;9.00;;
70320;SDS011;61127;55.826;37.046;2023-02-01T07:58:06;24.42;;;8.00;;
70320;SDS011;61127;55.826;37.046;2023-02-01T08:00:31;26.92;;;8.52;;
70320;SDS011;61127;55.826;37.046;2023-02-01T08:03:15;26.55;;;9.50;;
70320;SDS011;61127;55.826;37.046;2023-02-01T08:05:41;26.83;;;10.02;;
70320;SDS011;61127;55.826;37.046;2023-02-01T08:08:07;25.60;;;9.63;;
70320;SDS011;61127;55.826;37.046;2023-02-01T08:10:33;24.42;;;9.70;;
70320;SDS011;61127;55.826;37.046;2023-02-01T08:13:00;27.08;;;10.18;;
70320;SDS011;61127;55.826;37.046;2023-02-01T08:15:27;24.87;;;8.90;;
70320;SDS011;61127;55.826;37.046;2023-02-01T08:17:53;27.95;;;9.55;;
70320;SDS011;61127;55.826;37.046;2023-02-01T08:20:20;25.13;;;9.43;;
70320;SDS011;61127;55.826;37.046;2023-02-01T08:22:49;27.60;;;9.27;;
70320;SDS011;61127;55.826;37.046;2023-02-01T08:25:17;27.35;;;8.38;;
70320;SDS011;61127;55.826;37.046;2023-02-01T08:27:43;30.27;;;10.37;;
70320;SDS011;61127;55.826;37.046;2023-02-01T08:30:09;26.02;;;9.70;;
70320;SDS011;61127;55.826;37.046;2023-02-01T08:32:35;26.80;;;8.75;;
70320;SDS011;61127;55.826;37.046;2023-02-01T08:35:02;31.30;;;10.63;;
70320;SDS011;61127;55.826;37.046;2023-02-01T08:37:29;27.80;;;9.15;;
70320;SDS011;61127;55.826;37.046;2023-02-01T08:39:54;23.75;;;8.68;;
70320;SDS011;61127;55.826;37.046;2023-02-01T08:42:20;26.63;;;9.03;;
70320;SDS011;61127;55.826;37.046;2023-02-01T08:45:05;22.38;;;8.43;;
70320;SDS011;61127;55.826;37.046;2023-02-01T08:47:33;21.73;;;8.37;;
70320;SDS011;61127;55.826;37.046;2023-02-01T08:49:58;22.85;;;8.60;;
70320;SDS011;61127;55.826;37.046;2023-02-01T08:52:24;24.10;;;8.53;;
70320;SDS011;61127;55.826;37.046;2023-02-01T08:54:50;23.40;;;9.07;;
70320;SDS011;61127;55.826;37.046;2023-02-01T08:57:15;20.13;;;7.90;;
70320;SDS011;61127;55.826;37.046;2023-02-01T08:59:41;23.52;;;8.23;;
70320;SDS011;61127;55.826;37.046;2023-02-01T09:02:08;22.13;;;8.45;;
70320;SDS011;61127;55.826;37.046;2023-02-01T09:04:35;25.23;;;8.20;;
70320;SDS011;61127;55.826;37.046;2023-02-01T09:07:01;23.93;;;8.40;;
70320;SDS011;61127;55.826;37.046;2023-02-01T09:09:27;22.02;;;7.90;;
70320;SDS011;61127;55.826;37.046;2023-02-01T09:11:52;24.38;;;8.20;;
70320;SDS011;61127;55.826;37.046;2023-02-01T09:14:18;24.10;;;8.43;;
70320;SDS011;61127;55.826;37.046;2023-02-01T09:16:44;19.75;;;7.40;;
70320;SDS011;61127;55.826;37.046;2023-02-01T09:19:09;21.52;;;7.97;;
70320;SDS011;61127;55.826;37.046;2023-02-01T09:21:35;20.43;;;8.43;;
70320;SDS011;61127;55.826;37.046;2023-02-01T09:24:00;21.60;;;8.23;;
70320;SDS011;61127;55.826;37.046;2023-02-01T09:26:27;22.42;;;8.30;;
70320;SDS011;61127;55.826;37.046;2023-02-01T09:28:53;18.90;;;7.28;;
70320;SDS011;61127;55.826;37.046;2023-02-01T09:31:18;17.83;;;7.80;;
70320;SDS011;61127;55.826;37.046;2023-02-01T09:33:44;18.87;;;7.70;;
70320;SDS011;61127;55.826;37.046;2023-02-01T09:36:10;22.30;;;7.38;;
70320;SDS011;61127;55.826;37.046;2023-02-01T09:38:35;20.60;;;7.53;;
70320;SDS011;61127;55.826;37.046;2023-02-01T09:41:01;21.98;;;8.27;;
70320;SDS011;61127;55.826;37.046;2023-02-01T09:48:45;20.50;;;8.20;;
70320;SDS011;61127;55.826;37.046;2023-02-01T09:51:54;21.45;;;8.02;;
70320;SDS011;61127;55.826;37.046;2023-02-01T09:54:02;20.03;;;7.90;;
70320;SDS011;61127;55.826;37.046;2023-02-01T09:56:33;22.50;;;8.30;;
70320;SDS011;61127;55.826;37.046;2023-02-01T10:01:32;20.67;;;8.18;;
70320;SDS011;61127;55.826;37.046;2023-02-01T10:04:16;17.47;;;7.10;;
70320;SDS011;61127;55.826;37.046;2023-02-01T10:06:49;21.30;;;7.57;;
70320;SDS011;61127;55.826;37.046;2023-02-01T10:11:47;19.73;;;7.70;;
70320;SDS011;61127;55.826;37.046;2023-02-01T10:17:04;18.85;;;7.85;;
70320;SDS011;61127;55.826;37.046;2023-02-01T10:22:05;19.83;;;7.57;;
70320;SDS011;61127;55.826;37.046;2023-02-01T10:24:51;18.42;;;6.85;;
70320;SDS011;61127;55.826;37.046;2023-02-01T10:27:23;20.67;;;7.63;;
70320;SDS011;61127;55.826;37.046;2023-02-01T10:29:54;17.07;;;6.97;;
70320;SDS011;61127;55.826;37.046;2023-02-01T10:32:38;16.90;;;7.20;;
70320;SDS011;61127;55.826;37.046;2023-02-01T10:35:09;17.20;;;6.60;;
70320;SDS011;61127;55.826;37.046;2023-02-01T10:37:39;16.25;;;7.18;;
70320;SDS011;61127;55.826;37.046;2023-02-01T10:40:24;18.13;;;8.05;;
70320;SDS011;61127;55.826;37.046;2023-02-01T10:42:51;17.40;;;6.70;;
70320;SDS011;61127;55.826;37.046;2023-02-01T10:45:20;15.60;;;7.30;;
70320;SDS011;61127;55.826;37.046;2023-02-01T10:47:50;15.80;;;6.28;;
70320;SDS011;61127;55.826;37.046;2023-02-01T10:55:27;16.97;;;7.00;;
70320;SDS011;61127;55.826;37.046;2023-02-01T10:58:36;17.33;;;6.97;;
70320;SDS011;61127;55.826;37.046;2023-02-01T11:00:58;15.18;;;6.40;;
70320;SDS011;61127;55.826;37.046;2023-02-01T11:05:50;15.00;;;6.67;;
70320;SDS011;61127;55.826;37.046;2023-02-01T11:08:16;15.55;;;6.63;;
70320;SDS011;61127;55.826;37.046;2023-02-01T11:10:42;15.70;;;6.87;;
70320;SDS011;61127;55.826;37.046;2023-02-01T11:13:13;13.35;;;6.15;;
70320;SDS011;61127;55.826;37.046;2023-02-01T11:15:42;15.63;;;6.43;;
70320;SDS011;61127;55.826;37.046;2023-02-01T11:18:16;14.43;;;6.15;;
70320;SDS011;61127;55.826;37.046;2023-02-01T11:20:42;16.33;;;6.93;;
70320;SDS011;61127;55.826;37.046;2023-02-01T11:23:15;13.48;;;6.45;;
70320;SDS011;61127;55.826;37.046;2023-02-01T11:25:49;15.52;;;6.50;;
70320;SDS011;61127;55.826;37.046;2023-02-01T11:28:15;14.23;;;6.13;;
70320;SDS011;61127;55.826;37.046;2023-02-01T11:30:43;13.48;;;6.10;;
70320;SDS011;61127;55.826;37.046;2023-02-01T11:33:13;15.80;;;5.95;;
70320;SDS011;61127;55.826;37.046;2023-02-01T11:35:41;17.00;;;6.35;;
70320;SDS011;61127;55.826;37.046;2023-02-01T11:38:11;17.85;;;7.15;;
70320;SDS011;61127;55.826;37.046;2023-02-01T11:40:39;15.77;;;7.23;;
70320;SDS011;61127;55.826;37.046;2023-02-01T11:43:24;14.38;;;6.07;;
70320;SDS011;61127;55.826;37.046;2023-02-01T11:46:03;14.05;;;6.60;;
70320;SDS011;61127;55.826;37.046;2023-02-01T11:48:41;16.17;;;6.93;;
70320;SDS011;61127;55.826;37.046;2023-02-01T12:06:59;16.52;;;6.57;;
70320;SDS011;61127;55.826;37.046;2023-02-01T12:17:16;15.40;;;6.90;;
70320;SDS011;61127;55.826;37.046;2023-02-01T12:27:27;18.83;;;7.25;;
70320;SDS011;61127;55.826;37.046;2023-02-01T12:38:16;15.63;;;5.97;;
70320;SDS011;61127;55.826;37.046;2023-02-01T12:40:58;14.13;;;6.88;;
70320;SDS011;61127;55.826;37.046;2023-02-01T12:46:16;14.27;;;7.07;;
70320;SDS011;61127;55.826;37.046;2023-02-01T12:48:53;12.55;;;5.95;;
70320;SDS011;61127;55.826;37.046;2023-02-01T12:51:21;16.33;;;6.73;;
70320;SDS011;61127;55.826;37.046;2023-02-01T12:53:52;16.67;;;6.43;;
70320;SDS011;61127;55.826;37.046;2023-02-01T12:59:09;14.45;;;6.50;;
70320;SDS011;61127;55.826;37.046;2023-02-01T13:01:42;15.85;;;7.10;;
70320;SDS011;61127;55.826;37.046;2023-02-01T13:04:12;15.90;;;7.00;;
70320;SDS011;61127;55.826;37.046;2023-02-01T13:06:45;16.70;;;7.20;;
70320;SDS011;61127;55.826;37.046;2023-02-01T13:09:19;16.05;;;6.80;;
70320;SDS011;61127;55.826;37.046;2023-02-01T13:11:45;18.30;;;7.85;;
70320;SDS011;61127;55.826;37.046;2023-02-01T13:16:43;18.97;;;8.40;;
70320;SDS011;61127;55.826;37.046;2023-02-01T13:19:16;20.13;;;8.18;;
70320;SDS011;61127;55.826;37.046;2023-02-01T13:21:45;18.13;;;7.72;;
70320;SDS011;61127;55.826;37.046;2023-02-01T13:24:47;16.15;;;7.18;;
70320;SDS011;61127;55.826;37.046;2023-02-01T13:27:04;18.52;;;8.13;;
70320;SDS011;61127;55.826;37.046;2023-02-01T13:29:30;16.23;;;7.07;;
70320;SDS011;61127;55.826;37.046;2023-02-01T13:32:10;16.08;;;7.43;;
70320;SDS011;61127;55.826;37.046;2023-02-01T13:42:13;18.13;;;7.75;;
70320;SDS011;61127;55.826;37.046;2023-02-01T13:44:55;20.67;;;7.68;;
70320;SDS011;61127;55.826;37.046;2023-02-01T13:47:28;22.42;;;7.60;;
70320;SDS011;61127;55.826;37.046;2023-02-01T13:49:56;20.97;;;7.97;;
70320;SDS011;61127;55.826;37.046;2023-02-01T13:52:31;17.73;;;7.50;;
70320;SDS011;61127;55.826;37.046;2023-02-01T13:57:51;15.90;;;7.10;;
70320;SDS011;61127;55.826;37.046;2023-02-01T14:00:33;17.52;;;7.40;;
70320;SDS011;61127;55.826;37.046;2023-02-01T14:21:22;17.03;;;7.37;;
70320;SDS011;61127;55.826;37.046;2023-02-01T14:23:58;20.40;;;8.00;;
70320;SDS011;61127;55.826;37.046;2023-02-01T14:31:32;20.67;;;8.43;;
70320;SDS011;61127;55.826;37.046;2023-02-01T14:33:58;18.70;;;7.70;;
70320;SDS011;61127;55.826;37.046;2023-02-01T14:36:25;20.35;;;8.15;;
70320;SDS011;61127;55.826;37.046;2023-02-01T14:38:51;21.95;;;8.60;;
70320;SDS011;61127;55.826;37.046;2023-02-01T14:41:25;21.77;;;8.37;;
70320;SDS011;61127;55.826;37.046;2023-02-01T14:44:13;18.00;;;7.88;;
70320;SDS011;61127;55.826;37.046;2023-02-01T14:49:21;19.63;;;8.50;;
70320;SDS011;61127;55.826;37.046;2023-02-01T14:51:47;22.23;;;8.93;;
70320;SDS011;61127;55.826;37.046;2023-02-01T14:54:13;20.60;;;8.13;;
70320;SDS011;61127;55.826;37.046;2023-02-01T14:56:39;19.02;;;8.30;;
70320;SDS011;61127;55.826;37.046;2023-02-01T14:59:09;23.40;;;8.90;;
70320;SDS011;61127;55.826;37.046;2023-02-01T15:01:38;21.40;;;8.23;;
70320;SDS011;61127;55.826;37.046;2023-02-01T15:06:39;18.92;;;7.47;;
70320;SDS011;61127;55.826;37.046;2023-02-01T15:11:52;21.67;;;7.97;;
70320;SDS011;61127;55.826;37.046;2023-02-01T15:14:19;19.63;;;7.47;;
70320;SDS011;61127;55.826;37.046;2023-02-01T15:16:45;20.50;;;7.77;;
70320;SDS011;61127;55.826;37.046;2023-02-01T15:19:22;19.70;;;7.68;;
70320;SDS011;61127;55.826;37.046;2023-02-01T15:21:49;19.52;;;7.90;;
70320;SDS011;61127;55.826;37.046;2023-02-01T15:26:45;18.02;;;7.43;;
70320;SDS011;61127;55.826;37.046;2023-02-01T15:29:12;20.60;;;8.13;;
70320;SDS011;61127;55.826;37.046;2023-02-01T15:31:39;20.35;;;7.60;;
70320;SDS011;61127;55.826;37.046;2023-02-01T15:34:06;19.23;;;7.53;;
70320;SDS011;61127;55.826;37.046;2023-02-01T15:36:32;19.83;;;7.87;;
70320;SDS011;61127;55.826;37.046;2023-02-01T15:39:15;18.65;;;7.53;;
70320;SDS011;61127;55.826;37.046;2023-02-01T15:41:49;22.55;;;8.05;;
70320;SDS011;61127;55.826;37.046;2023-02-01T15:44:18;18.30;;;7.78;;
70320;SDS011;61127;55.826;37.046;2023-02-01T15:46:48;16.52;;;7.07;;
70320;SDS011;61127;55.826;37.046;2023-02-01T15:49:19;19.63;;;7.67;;
70320;SDS011;61127;55.826;37.046;2023-02-01T15:51:46;20.67;;;8.70;;
70320;SDS011;61127;55.826;37.046;2023-02-01T15:54:18;18.83;;;7.25;;
70320;SDS011;61127;55.826;37.046;2023-02-01T15:56:49;20.33;;;7.65;;
70320;SDS011;61127;55.826;37.046;2023-02-01T15:59:19;17.83;;;7.05;;
70320;SDS011;61127;55.826;37.046;2023-02-01T16:01:45;24.10;;;8.50;;
70320;SDS011;61127;55.826;37.046;2023-02-01T16:07:00;19.88;;;8.57;;
70320;SDS011;61127;55.826;37.046;2023-02-01T16:09:39;22.40;;;8.18;;
70320;SDS011;61127;55.826;37.046;2023-02-01T16:12:22;21.40;;;8.20;;
70320;SDS011;61127;55.826;37.046;2023-02-01T16:14:50;22.70;;;8.50;;
70320;SDS011;61127;55.826;37.046;2023-02-01T16:17:15;21.20;;;8.82;;
70320;SDS011;61127;55.826;37.046;2023-02-01T16:19:41;24.85;;;8.55;;
70320;SDS011;61127;55.826;37.046;2023-02-01T16:22:06;22.13;;;8.20;;
70320;SDS011;61127;55.826;37.046;2023-02-01T16:24:32;23.10;;;8.53;;
70320;SDS011;61127;55.826;37.046;2023-02-01T16:26:58;23.02;;;8.68;;
70320;SDS011;61127;55.826;37.046;2023-02-01T16:29:23;21.83;;;8.57;;
70320;SDS011;61127;55.826;37.046;2023-02-01T16:31:49;20.95;;;8.30;;
70320;SDS011;61127;55.826;37.046;2023-02-01T16:34:16;22.13;;;8.82;;
70320;SDS011;61127;55.826;37.046;2023-02-01T16:36:43;23.40;;;8.33;;
70320;SDS011;61127;55.826;37.046;2023-02-01T16:39:10;20.45;;;8.40;;
70320;SDS011;61127;55.826;37.046;2023-02-01T16:41:36;20.80;;;8.25;;
70320;SDS011;61127;55.826;37.046;2023-02-01T16:44:03;22.73;;;8.93;;
70320;SDS011;61127;55.826;37.046;2023-02-01T16:46:29;20.30;;;7.90;;
70320;SDS011;61127;55.826;37.046;2023-02-01T16:48:58;20.60;;;7.70;;
70320;SDS011;61127;55.826;37.046;2023-02-01T16:51:24;20.58;;;7.80;;
70320;SDS011;61127;55.826;37.046;2023-02-01T16:53:50;20.57;;;7.83;;
70320;SDS011;61127;55.826;37.046;2023-02-01T16:56:29;20.15;;;8.52;;
70320;SDS011;61127;55.826;37.046;2023-02-01T16:58:55;22.80;;;8.15;;
70320;SDS011;61127;55.826;37.046;2023-02-01T17:01:21;22.23;;;8.13;;